createdAt,value
2018-04-16T00:02:19.227Z,96.50
2018-04-16T00:04:47.389Z,96.50
2018-04-16T00:07:15.736Z,96.50
2018-04-16T00:09:44.636Z,96.80
2018-04-16T00:12:16.606Z,96.90
2018-04-16T00:14:48.775Z,96.90
2018-04-16T00:20:42.242Z,96.80
2018-04-16T00:23:14.132Z,96.80
2018-04-16T00:25:58.890Z,96.80
2018-04-16T00:28:32.173Z,96.80
2018-04-16T00:31:03.092Z,96.80
2018-04-16T00:35:40.664Z,96.80
2018-04-16T00:39:17.237Z,96.80
2018-04-16T00:46:25.445Z,96.50
2018-04-16T00:49:01.946Z,96.10
2018-04-16T00:53:42.258Z,96.10
2018-04-16T00:58:23.216Z,96.00
2018-04-16T01:03:00.969Z,96.00
2018-04-16T01:07:45.274Z,95.70
2018-04-16T01:12:32.165Z,95.40
2018-04-16T01:16:16.763Z,95.50
2018-04-16T01:19:53.515Z,95.50
2018-04-16T01:24:44.626Z,95.30
2018-04-16T01:27:20.325Z,95.30
2018-04-16T01:30:58.126Z,95.50
2018-04-16T01:34:33.849Z,95.50
2018-04-16T01:39:14.149Z,95.60
2018-04-16T01:42:48.026Z,95.70
2018-04-16T01:46:24.851Z,95.80
2018-04-16T01:51:20.474Z,95.90
2018-04-16T01:54:55.706Z,97.10
2018-04-16T01:59:36.694Z,97.10
2018-04-16T02:03:18.112Z,98.80
2018-04-16T02:05:55.062Z,98.60
2018-04-16T02:08:39.955Z,98.70
2018-04-16T02:11:16.466Z,98.70
2018-04-16T02:15:57.438Z,99.00
2018-04-16T02:20:35.435Z,99.10
2018-04-16T02:23:10.528Z,99.20
2018-04-16T02:28:02.698Z,99.00
2018-04-16T02:31:35.591Z,99.00
2018-04-16T02:36:21.751Z,99.00
2018-04-16T02:39:57.158Z,98.90
2018-04-16T02:43:31.890Z,99.90
2018-04-16T02:47:10.552Z,99.80
2018-04-16T02:51:49.407Z,99.80
2018-04-16T02:55:26.089Z,99.90
2018-04-16T03:02:19.478Z,99.90
2018-04-16T03:05:52.402Z,99.80
2018-04-16T03:10:33.000Z,99.40
2018-04-16T03:15:12.295Z,99.40
2018-04-16T03:17:46.103Z,99.20
2018-04-16T03:22:21.294Z,99.60
2018-04-16T03:26:58.088Z,99.50
2018-04-16T03:31:33.612Z,99.50
2018-04-16T03:36:09.708Z,99.60
2018-04-16T03:40:50.802Z,99.70
2018-04-16T03:44:22.505Z,99.90
2018-04-16T03:47:54.051Z,99.90
2018-04-16T03:51:31.971Z,99.90
2018-04-16T03:54:00.832Z,99.90
2018-04-16T03:56:29.053Z,99.90
2018-04-16T03:58:57.117Z,99.90
2018-04-16T04:01:25.597Z,99.50
2018-04-16T04:03:53.693Z,99.60
2018-04-16T04:06:22.298Z,99.20
2018-04-16T04:08:50.880Z,99.10
2018-04-16T04:11:18.992Z,99.20
2018-04-16T04:13:48.040Z,99.30
2018-04-16T04:16:16.230Z,99.30
2018-04-16T04:18:44.686Z,99.50
2018-04-16T04:21:14.029Z,99.50
2018-04-16T04:26:04.344Z,99.30
2018-04-16T04:30:46.048Z,99.70
2018-04-16T04:33:14.949Z,99.70
2018-04-16T04:35:43.972Z,99.80
2018-04-16T04:38:12.881Z,99.90
2018-04-16T04:40:41.088Z,99.90
2018-04-16T04:43:10.132Z,99.80
2018-04-16T04:45:38.426Z,99.80
2018-04-16T04:48:06.608Z,99.80
2018-04-16T04:50:34.850Z,99.80
2018-04-16T04:53:03.392Z,99.80
2018-04-16T04:55:31.941Z,99.60
2018-04-16T04:58:00.922Z,99.80
2018-04-16T05:00:30.208Z,99.70
2018-04-16T05:02:58.516Z,99.70
2018-04-16T05:05:26.795Z,99.70
2018-04-16T05:07:54.881Z,99.60
2018-04-16T05:10:24.056Z,99.80
2018-04-16T05:12:52.239Z,99.80
2018-04-16T05:15:20.425Z,99.70
2018-04-16T05:17:49.705Z,99.90
2018-04-16T05:20:18.131Z,99.90
2018-04-16T05:22:46.438Z,99.90
2018-04-16T05:25:14.762Z,99.90
2018-04-16T05:27:43.371Z,99.90
2018-04-16T05:30:11.688Z,99.90
2018-04-16T05:32:39.923Z,99.90
2018-04-16T05:35:08.076Z,99.90
2018-04-16T05:37:37.098Z,99.90
2018-04-16T05:40:05.441Z,99.90
2018-04-16T05:42:34.453Z,99.80
2018-04-16T05:45:02.893Z,99.80
2018-04-16T05:47:31.776Z,99.70
2018-04-16T05:49:59.994Z,99.70
2018-04-16T05:52:28.681Z,99.70
2018-04-16T05:54:57.609Z,99.70
2018-04-16T05:57:25.907Z,99.70
2018-04-16T05:59:54.264Z,99.60
2018-04-16T06:02:22.363Z,99.70
2018-04-16T06:04:50.763Z,99.60
2018-04-16T06:07:19.943Z,99.30
2018-04-16T06:09:48.107Z,99.30
2018-04-16T06:12:16.325Z,99.50
2018-04-16T06:14:44.636Z,99.40
2018-04-16T06:17:12.841Z,99.30
2018-04-16T06:19:42.025Z,99.00
2018-04-16T06:22:10.396Z,99.00
2018-04-16T06:24:39.785Z,98.80
2018-04-16T06:27:07.955Z,98.50
2018-04-16T06:29:36.286Z,98.50
2018-04-16T06:32:05.154Z,98.20
2018-04-16T06:34:33.241Z,98.30
2018-04-16T06:37:01.791Z,98.00
2018-04-16T06:39:30.170Z,97.80
2018-04-16T06:41:58.457Z,97.80
2018-04-16T06:44:26.765Z,97.90
2018-04-16T06:46:55.147Z,97.80
2018-04-16T06:49:23.398Z,97.90
2018-04-16T06:51:52.213Z,97.60
2018-04-16T06:54:20.996Z,97.60
2018-04-16T06:56:49.921Z,97.30
2018-04-16T06:59:18.190Z,97.30
2018-04-16T07:01:46.377Z,97.00
2018-04-16T07:04:14.751Z,96.80
2018-04-16T07:06:43.373Z,96.90
2018-04-16T07:09:12.334Z,96.60
2018-04-16T07:11:40.923Z,96.60
2018-04-16T07:14:09.079Z,96.60
2018-04-16T07:16:38.133Z,96.90
2018-04-16T07:19:06.345Z,96.40
2018-04-16T07:21:34.630Z,96.40
2018-04-16T07:24:03.162Z,96.20
2018-04-16T07:26:31.510Z,96.10
2018-04-16T07:29:00.003Z,96.60
2018-04-16T07:31:29.194Z,97.10
2018-04-16T07:33:57.320Z,97.10
2018-04-16T07:36:25.481Z,96.90
2018-04-16T07:38:53.705Z,96.60
2018-04-16T07:41:21.860Z,96.30
2018-04-16T07:43:50.976Z,96.60
2018-04-16T07:46:19.967Z,96.20
2018-04-16T07:48:48.462Z,96.20
2018-04-16T07:51:17.432Z,95.10
2018-04-16T07:53:45.804Z,95.10
2018-04-16T07:56:14.229Z,94.30
2018-04-16T07:58:43.637Z,94.90
2018-04-16T08:01:12.397Z,94.90
2018-04-16T08:03:41.352Z,95.10
2018-04-16T08:06:09.451Z,95.00
2018-04-16T08:08:37.892Z,95.70
2018-04-16T08:11:06.351Z,95.40
2018-04-16T08:13:34.697Z,95.30
2018-04-16T08:16:02.988Z,94.90
2018-04-16T08:18:31.428Z,94.50
2018-04-16T08:20:59.533Z,93.80
2018-04-16T08:23:28.490Z,92.60
2018-04-16T08:25:57.947Z,92.30
2018-04-16T08:28:26.120Z,92.20
2018-04-16T08:30:54.468Z,91.90
2018-04-16T08:33:23.388Z,91.90
2018-04-16T08:35:52.126Z,91.90
2018-04-16T08:38:20.271Z,90.70
2018-04-16T08:40:48.605Z,90.00
2018-04-16T08:43:17.045Z,90.50
2018-04-16T08:45:45.328Z,91.10
2018-04-16T08:48:14.091Z,90.60
2018-04-16T08:50:42.376Z,90.30
2018-04-16T08:53:10.871Z,90.30
2018-04-16T08:55:39.335Z,89.30
2018-04-16T08:58:07.587Z,89.40
2018-04-16T09:00:36.000Z,86.50
2018-04-16T09:03:04.228Z,87.00
2018-04-16T09:05:33.265Z,89.90
2018-04-16T09:08:02.043Z,89.90
2018-04-16T09:10:30.254Z,90.10
2018-04-16T09:12:58.630Z,91.30
2018-04-16T09:15:27.634Z,89.60
2018-04-16T09:17:56.497Z,87.30
2018-04-16T09:20:25.004Z,87.30
2018-04-16T09:22:53.546Z,87.00
2018-04-16T09:25:22.471Z,88.70
2018-04-16T09:27:50.812Z,88.60
2018-04-16T09:30:19.312Z,88.40
2018-04-16T09:32:47.920Z,89.10
2018-04-16T09:35:17.058Z,88.40
2018-04-16T09:37:45.463Z,88.30
2018-04-16T09:40:14.025Z,88.40
2018-04-16T09:42:42.634Z,90.30
2018-04-16T09:45:11.541Z,90.40
2018-04-16T09:47:39.775Z,90.30
2018-04-16T09:50:08.539Z,88.90
2018-04-16T09:52:37.738Z,87.80
2018-04-16T09:55:06.149Z,87.80
2018-04-16T09:57:34.487Z,87.60
2018-04-16T10:00:02.904Z,87.40
2018-04-16T10:02:31.681Z,86.40
2018-04-16T10:04:59.854Z,85.10
2018-04-16T10:07:28.132Z,85.00
2018-04-16T10:09:56.489Z,84.30
2018-04-16T10:12:25.416Z,84.20
2018-04-16T10:14:53.735Z,84.20
2018-04-16T10:17:21.864Z,83.10
2018-04-16T10:19:50.433Z,82.90
2018-04-16T10:22:18.661Z,84.90
2018-04-16T10:24:47.784Z,85.60
2018-04-16T10:27:16.289Z,85.60
2018-04-16T10:29:44.660Z,86.30
2018-04-16T10:32:13.245Z,86.00
2018-04-16T10:34:41.512Z,85.20
2018-04-16T10:37:09.849Z,84.90
2018-04-16T10:39:38.160Z,85.50
2018-04-16T10:42:06.759Z,85.50
2018-04-16T10:44:35.781Z,84.40
2018-04-16T10:47:04.156Z,84.30
2018-04-16T10:49:32.553Z,84.00
2018-04-16T10:52:02.300Z,84.90
2018-04-16T10:54:30.711Z,84.90
2018-04-16T10:57:00.061Z,82.00
2018-04-16T10:59:28.948Z,79.70
2018-04-16T11:01:57.061Z,79.70
2018-04-16T11:04:25.325Z,78.80
2018-04-16T11:06:53.882Z,79.20
2018-04-16T11:09:22.964Z,80.00
2018-04-16T11:11:52.097Z,79.90
2018-04-16T11:14:20.464Z,79.40
2018-04-16T11:16:48.859Z,79.60
2018-04-16T11:19:18.010Z,80.80
2018-04-16T11:21:47.077Z,80.30
2018-04-16T11:24:15.443Z,80.30
2018-04-16T11:26:44.558Z,80.70
2018-04-16T11:29:14.121Z,80.10
2018-04-16T11:31:42.912Z,80.10
2018-04-16T11:34:11.702Z,80.30
2018-04-16T11:36:40.183Z,78.80
2018-04-16T11:39:08.882Z,78.50
2018-04-16T11:41:38.650Z,79.50
2018-04-16T11:44:06.923Z,78.50
2018-04-16T11:46:35.489Z,76.20
2018-04-16T11:49:03.787Z,75.10
2018-04-16T11:51:35.779Z,75.90
2018-04-16T11:54:03.979Z,76.40
2018-04-16T11:56:33.086Z,78.30
2018-04-16T11:59:02.378Z,78.70
2018-04-16T12:01:32.048Z,78.20
2018-04-16T12:04:00.637Z,78.20
2018-04-16T12:06:29.657Z,76.60
2018-04-16T12:08:58.664Z,77.60
2018-04-16T12:11:27.840Z,77.50
2018-04-16T12:13:59.408Z,77.10
2018-04-16T12:16:27.961Z,77.00
2018-04-16T12:18:57.773Z,76.40
2018-04-16T12:21:26.868Z,76.50
2018-04-16T12:23:55.462Z,76.90
2018-04-16T12:26:24.049Z,77.80
2018-04-16T12:28:52.175Z,76.70
2018-04-16T12:31:20.625Z,77.30
2018-04-16T12:33:50.201Z,77.60
2018-04-16T12:36:18.780Z,77.50
2018-04-16T12:38:47.247Z,76.80
2018-04-16T12:41:15.644Z,78.40
2018-04-16T12:43:43.970Z,77.90
2018-04-16T12:46:12.688Z,78.50
2018-04-16T12:48:40.997Z,79.20
2018-04-16T12:51:09.308Z,79.80
2018-04-16T12:53:38.488Z,79.50
2018-04-16T12:56:08.143Z,79.00
2018-04-16T12:58:36.445Z,78.40
2018-04-16T13:01:04.900Z,79.40
2018-04-16T13:03:34.199Z,79.40
2018-04-16T13:06:02.886Z,79.40
2018-04-16T13:08:31.226Z,78.10
2018-04-16T13:10:59.407Z,77.50
2018-04-16T13:13:28.749Z,76.70
2018-04-16T13:15:57.465Z,77.30
2018-04-16T13:18:25.937Z,76.00
2018-04-16T13:20:54.200Z,76.00
2018-04-16T13:23:22.403Z,74.70
2018-04-16T13:25:51.349Z,74.50
2018-04-16T13:28:19.891Z,74.40
2018-04-16T13:30:48.171Z,73.50
2018-04-16T13:33:16.496Z,73.70
2018-04-16T13:35:44.629Z,71.80
2018-04-16T13:38:12.728Z,72.20
2018-04-16T13:40:41.122Z,69.20
2018-04-16T13:43:10.408Z,67.80
2018-04-16T13:45:39.653Z,65.10
2018-04-16T13:48:07.893Z,65.00
2018-04-16T13:50:36.601Z,66.30
2018-04-16T13:53:05.040Z,66.40
2018-04-16T13:55:33.224Z,67.70
2018-04-16T13:58:02.167Z,67.60
2018-04-16T14:00:30.517Z,66.40
2018-04-16T14:02:59.092Z,67.40
2018-04-16T14:05:27.544Z,66.30
2018-04-16T14:07:55.799Z,64.30
2018-04-16T14:10:24.921Z,64.90
2018-04-16T14:12:53.225Z,65.00
2018-04-16T14:15:22.421Z,66.20
2018-04-16T14:17:50.929Z,66.20
2018-04-16T14:20:20.087Z,68.50
2018-04-16T14:22:49.869Z,68.30
2018-04-16T14:25:18.357Z,68.20
2018-04-16T14:27:47.055Z,69.00
2018-04-16T14:30:15.487Z,69.80
2018-04-16T14:32:44.487Z,72.40
2018-04-16T14:35:13.405Z,72.30
2018-04-16T14:37:41.861Z,73.70
2018-04-16T14:40:10.313Z,73.60
2018-04-16T14:42:39.471Z,73.40
2018-04-16T14:45:08.343Z,73.40
2018-04-16T14:47:36.782Z,72.90
2018-04-16T14:50:05.289Z,72.60
2018-04-16T14:52:33.848Z,73.40
2018-04-16T14:55:02.728Z,73.40
2018-04-16T14:57:32.024Z,73.80
2018-04-16T15:00:01.002Z,73.70
2018-04-16T15:02:30.065Z,72.60
2018-04-16T15:04:58.369Z,72.60
2018-04-16T15:07:26.589Z,72.50
2018-04-16T15:09:56.651Z,71.40
2018-04-16T15:12:24.816Z,71.40
2018-04-16T15:14:53.158Z,70.00
2018-04-16T15:17:22.228Z,64.90
2018-04-16T15:19:51.785Z,62.90
2018-04-16T15:22:20.855Z,57.30
2018-04-16T15:24:50.311Z,57.30
2018-04-16T15:27:19.633Z,57.70
2018-04-16T15:29:48.812Z,57.40
2018-04-16T15:32:17.179Z,57.30
2018-04-16T15:34:45.269Z,57.70
2018-04-16T15:37:14.774Z,57.70
2018-04-16T15:39:44.381Z,57.80
2018-04-16T15:42:13.413Z,57.60
2018-04-16T15:44:41.845Z,57.60
2018-04-16T15:47:11.884Z,59.40
2018-04-16T15:49:40.224Z,59.50
2018-04-16T15:52:09.631Z,59.30
2018-04-16T15:54:37.912Z,59.40
2018-04-16T15:57:06.131Z,59.90
2018-04-16T15:59:34.719Z,60.10
2018-04-16T16:02:02.950Z,60.80
2018-04-16T16:04:31.829Z,60.60
2018-04-16T16:07:00.116Z,62.50
2018-04-16T16:09:28.877Z,74.40
2018-04-16T16:11:57.501Z,77.10
2018-04-16T16:14:26.493Z,79.20
2018-04-16T16:16:55.327Z,80.10
2018-04-16T16:19:24.530Z,80.30
2018-04-16T16:21:52.948Z,80.30
2018-04-16T16:24:22.134Z,80.60
2018-04-16T16:26:50.601Z,80.60
2018-04-16T16:29:18.838Z,80.90
2018-04-16T16:31:47.669Z,80.80
2018-04-16T16:34:16.160Z,80.80
2018-04-16T16:36:44.804Z,80.80
2018-04-16T16:39:14.597Z,79.90
2018-04-16T16:41:43.395Z,79.90
2018-04-16T16:44:12.175Z,80.50
2018-04-16T16:46:40.442Z,80.40
2018-04-16T16:49:08.667Z,79.90
2018-04-16T16:51:37.277Z,79.80
2018-04-16T16:54:05.478Z,80.30
2018-04-16T16:56:34.648Z,81.40
2018-04-16T16:59:03.186Z,81.40
2018-04-16T17:01:32.703Z,81.40
2018-04-16T17:04:01.017Z,81.60
2018-04-16T17:06:29.304Z,81.80
2018-04-16T17:08:57.591Z,81.40
2018-04-16T17:11:26.033Z,80.90
2018-04-16T17:13:54.628Z,80.90
2018-04-16T17:16:24.041Z,80.50
2018-04-16T17:18:52.831Z,80.50
2018-04-16T17:21:21.939Z,81.10
2018-04-16T17:23:50.261Z,81.10
2018-04-16T17:26:18.778Z,81.70
2018-04-16T17:28:46.968Z,82.30
2018-04-16T17:31:15.920Z,82.40
2018-04-16T17:33:45.335Z,82.40
2018-04-16T17:36:14.354Z,82.60
2018-04-16T17:38:43.121Z,82.60
2018-04-16T17:41:12.705Z,82.90
2018-04-16T17:43:41.138Z,82.70
2018-04-16T17:46:09.381Z,83.20
2018-04-16T17:48:38.647Z,83.70
2018-04-16T17:51:07.613Z,83.60
2018-04-16T17:53:35.729Z,83.60
2018-04-16T17:56:03.887Z,84.00
2018-04-16T17:58:32.108Z,84.30
2018-04-16T18:01:00.208Z,84.50
2018-04-16T18:03:29.101Z,84.70
2018-04-16T18:05:57.483Z,84.70
2018-04-16T18:08:25.824Z,85.00
2018-04-16T18:10:54.079Z,84.90
2018-04-16T18:13:23.049Z,85.00
2018-04-16T18:15:51.192Z,85.50
2018-04-16T18:18:19.413Z,86.00
2018-04-16T18:20:48.468Z,87.00
2018-04-16T18:23:16.903Z,87.00
2018-04-16T18:25:45.741Z,88.00
2018-04-16T18:28:13.960Z,88.00
2018-04-16T18:30:42.868Z,89.10
2018-04-16T18:33:11.248Z,89.10
2018-04-16T18:35:39.647Z,89.50
2018-04-16T18:38:08.088Z,89.60
2018-04-16T18:40:36.536Z,89.80
2018-04-16T18:43:05.644Z,90.10
2018-04-16T18:45:34.194Z,90.10
2018-04-16T18:48:04.311Z,90.00
2018-04-16T18:50:32.699Z,90.00
2018-04-16T18:53:01.193Z,90.10
2018-04-16T18:55:29.652Z,90.30
2018-04-16T18:57:58.088Z,90.40
2018-04-16T19:00:26.407Z,90.30
2018-04-16T19:02:54.528Z,90.50
2018-04-16T19:05:23.727Z,90.80
2018-04-16T19:07:52.413Z,90.80
2018-04-16T19:10:20.779Z,90.70
2018-04-16T19:12:48.948Z,90.80
2018-04-16T19:15:17.844Z,91.10
2018-04-16T19:17:51.500Z,91.00
2018-04-16T19:20:24.241Z,90.90
2018-04-16T19:22:53.380Z,90.80
2018-04-16T19:25:21.490Z,90.80
2018-04-16T19:27:55.137Z,90.90
2018-04-16T19:30:24.241Z,90.90
2018-04-16T19:32:57.419Z,90.90
2018-04-16T19:35:25.445Z,90.90
2018-04-16T19:37:53.833Z,90.90
2018-04-16T19:40:22.855Z,91.20
2018-04-16T19:42:51.159Z,91.20
2018-04-16T19:45:19.470Z,91.20
2018-04-16T19:47:47.809Z,91.30
2018-04-16T19:50:15.861Z,91.30
2018-04-16T19:52:44.128Z,91.30
2018-04-16T19:55:12.969Z,91.30
2018-04-16T19:57:46.615Z,91.30
2018-04-16T20:00:15.198Z,91.40
2018-04-16T20:02:48.929Z,91.70
2018-04-16T20:05:17.120Z,91.70
2018-04-16T20:07:46.140Z,91.50
2018-04-16T20:10:14.472Z,91.50
2018-04-16T20:12:42.750Z,91.60
2018-04-16T20:15:10.818Z,91.50
2018-04-16T20:17:39.143Z,91.50
2018-04-16T20:20:08.360Z,91.40
2018-04-16T20:22:36.950Z,91.40
2018-04-16T20:25:05.737Z,91.40
2018-04-16T20:27:35.181Z,91.60
2018-04-16T20:30:04.449Z,91.50
2018-04-16T20:32:32.574Z,91.30
2018-04-16T20:35:01.873Z,91.30
2018-04-16T20:37:30.732Z,91.30
2018-04-16T20:39:58.854Z,91.40
2018-04-16T20:42:31.236Z,91.30
2018-04-16T20:44:59.413Z,91.30
2018-04-16T20:47:28.608Z,91.30
2018-04-16T20:49:57.626Z,90.90
2018-04-16T20:52:26.138Z,90.90
2018-04-16T20:55:05.865Z,90.80
2018-04-16T20:57:34.608Z,90.90
2018-04-16T21:00:07.116Z,91.10
2018-04-16T21:02:35.728Z,91.10
2018-04-16T21:05:05.436Z,91.20
2018-04-16T21:07:34.413Z,91.40
2018-04-16T21:10:03.531Z,91.60
2018-04-16T21:12:33.138Z,91.90
2018-04-16T21:15:02.241Z,92.20
2018-04-16T21:17:30.914Z,92.20
2018-04-16T21:19:59.855Z,92.20
2018-04-16T21:22:29.914Z,92.20
2018-04-16T21:24:58.303Z,92.40
2018-04-16T21:27:31.986Z,92.40
2018-04-16T21:30:00.093Z,92.50
2018-04-16T21:32:29.118Z,92.60
2018-04-16T21:34:57.359Z,92.60
2018-04-16T21:37:25.533Z,92.80
2018-04-16T21:39:53.893Z,93.00
2018-04-16T21:42:22.737Z,94.50
2018-04-16T21:44:50.744Z,94.40
2018-04-16T21:47:19.120Z,94.30
2018-04-16T21:49:49.275Z,94.30
2018-04-16T21:52:18.218Z,93.90
2018-04-16T21:54:46.730Z,93.90
2018-04-16T21:57:14.977Z,94.00
2018-04-16T21:59:43.244Z,93.60
2018-04-16T22:02:11.444Z,93.50
2018-04-16T22:04:39.799Z,93.50
2018-04-16T22:07:07.995Z,93.10
2018-04-16T22:09:36.604Z,92.80
2018-04-16T22:12:05.103Z,92.50
2018-04-16T22:14:34.172Z,94.60
2018-04-16T22:20:22.825Z,94.50
2018-04-16T22:22:52.183Z,94.90
2018-04-16T22:25:50.555Z,95.10
2018-04-16T22:31:39.838Z,95.20
2018-04-16T22:34:07.943Z,95.30
2018-04-16T22:36:50.416Z,95.40
2018-04-16T22:39:19.057Z,95.40
2018-04-16T22:41:48.033Z,95.50
2018-04-16T22:44:50.674Z,95.50
2018-04-16T22:47:19.056Z,95.60
2018-04-16T22:49:47.260Z,95.60
2018-04-16T22:52:15.657Z,95.60
2018-04-16T22:54:44.010Z,95.40
2018-04-16T22:57:14.567Z,95.40
2018-04-16T22:59:43.570Z,95.40
2018-04-16T23:02:12.347Z,95.40
2018-04-16T23:04:52.904Z,95.50
2018-04-16T23:07:22.077Z,95.60
2018-04-16T23:09:50.429Z,95.60
2018-04-16T23:12:49.993Z,95.60
2018-04-16T23:15:18.689Z,95.90
2018-04-16T23:17:46.929Z,96.20
2018-04-16T23:20:28.214Z,96.30
2018-04-16T23:22:57.224Z,96.20
2018-04-16T23:25:25.350Z,96.20
2018-04-16T23:27:56.184Z,96.60
2018-04-16T23:30:24.181Z,96.60
2018-04-16T23:32:57.738Z,96.50
2018-04-16T23:38:48.312Z,96.60
2018-04-16T23:41:16.345Z,96.90
2018-04-16T23:47:06.832Z,96.90
2018-04-16T23:49:34.957Z,96.80
2018-04-16T23:52:03.767Z,97.00
2018-04-16T23:54:31.792Z,96.90
2018-04-16T23:56:59.934Z,96.70
2018-04-16T23:59:28.801Z,96.70
